SBCTSBCF

Guest
Details From SBCT - Afonso Pena
To SBCF - Tancredo Neves
Flight Number -
Tags Generated
Created
Modified
Stats Distance 458 nm / 848 km
Max Altitude 0 ft / 0 m
Waypoints 3
Social Downloads 0
Likes 0
Share VATSIM

Download

Looking for another format? Having issues loading an existing format? Contact us
Advertisement - Login to hide

Notes

Generated

Route

SBCT IF SBCF

ID Type Via Altitude Latitude Longitude Leg Dist Tot Dist Heading (true) Name
O SBCT APT - 0 ft / 0 m -25.52836˚ -49.18010˚ - 0 nm - -
IF NDB - 0 ft / 0 m -19.61607˚ -43.98504˚ 457 nm 457 nm 40° / 38° FAZENDA NDB
O SBCF APT - 0 ft / 0 m -19.62356˚ -43.97828˚ 0 nm 457 nm 140° / 140° -

Altitude Profile

Advertisement - Login to hide

Weather


0- 5 10 15 20 25 30 35+ Temperature / ° C

Clouds and Precipitation
Forecast for 2018-05-24 00:00 UTC. Updated 2 hours ago

Ground ~20,000 ft ~40,000 ft Winds

SBCT

Details ICAO SBCT (CWB)
Name Afonso Pena
Region Brazil
Timezone America/Sao_Paulo (UTC-3.0)
Stats Elevation 2,988 ft / 911 m (AMSL)
Location -25.528885° -49.173062°
Runways 2
Magnetic Variation 19.675° W

METAR

SBCT 240100Z 08003KT 9999 BKN013 BKN025 12/10 Q1027

Decode

TAF

TAF SBCT 232130Z 2400/2424 10005KT 9999 BKN005 TN08/2408Z TX18/2417Z BECMG 2402/2404 BKN008 PROB40 TEMPO 2408/2411 4000 BR BKN004 BECMG 2411/2413 BKN012 BECMG 2413/2415 FEW025 BECMG 2422/2424 BKN009 RMK PDW

Decode

Departure Runways

ID Width Length Bearing (true) Bearing (mag) Surface Threshold Offset Overrun Length
11 148 ft / 45 m 5,909 ft / 1,801 m 91.79° 111.46° Asphalt 0 ft / 0 m 0 ft / 0 m
15 148 ft / 45 m 7,290 ft / 2,222 m 134.76° 154.43° Asphalt 0 ft / 0 m 190 ft / 58 m
29 148 ft / 45 m 5,909 ft / 1,801 m 271.78° 291.45° Asphalt 0 ft / 0 m 0 ft / 0 m
33 148 ft / 45 m 7,290 ft / 2,222 m 314.75° 334.42° Asphalt 0 ft / 0 m 185 ft / 56 m

SBCF

Details ICAO SBCF (CNF)
Name Tancredo Neves
Region Brazil
Timezone America/Sao_Paulo (UTC-3.0)
Stats Elevation 2,715 ft / 828 m (AMSL)
Location -19.633758° -43.968854°
Runways 1
Magnetic Variation 22.844° W

METAR

SBCF 240100Z 13006KT CAVOK 18/14 Q1024

Decode

TAF

TAF SBCF 232200Z 2400/2424 15003KT CAVOK TN13/2409Z TX25/2417Z BECMG 2408/2410 10005KT PROB40 2415/2421 9999 SCT030 RMK PDS

Decode

Destination Runways

ID Width Length Bearing (true) Bearing (mag) Surface Threshold Offset Overrun Length
16 148 ft / 45 m 9,872 ft / 3,009 m 138.97° 161.81° Asphalt 0 ft / 0 m 203 ft / 62 m
34 148 ft / 45 m 9,872 ft / 3,009 m 318.96° 341.80° Asphalt 0 ft / 0 m 203 ft / 62 m

Approach Navaids

Runway Type Ident Frequency Range Bearing (true) Bearing (mag) Slope Elevation
16 Localiser ICF 109.70 MHz 18 nm / 33 km 138.90° 161.75° - 2,716 ft / 828 m (AMSL)
16 Glidescope ICF 109.70 MHz 10 nm / 19 km 138.96° 161.81° 3.00° 2,716 ft / 828 m (AMSL)

Popular Alternatives